sensor_id;sensor_type;location;lat;lon;timestamp;temperature;humidity
1091;DHT22;534;48.704;9.122;2023-04-16T04:02:47;9.30;89.90
1091;DHT22;534;48.704;9.122;2023-04-16T04:05:14;9.30;89.40
1091;DHT22;534;48.704;9.122;2023-04-16T04:07:40;9.20;89.30
1091;DHT22;534;48.704;9.122;2023-04-16T04:10:08;9.20;89.80
1091;DHT22;534;48.704;9.122;2023-04-16T04:12:35;9.20;89.60
1091;DHT22;534;48.704;9.122;2023-04-16T04:15:01;9.10;90.00
1091;DHT22;534;48.704;9.122;2023-04-16T04:17:28;9.00;90.20
1091;DHT22;534;48.704;9.122;2023-04-16T04:19:56;8.90;90.80
1091;DHT22;534;48.704;9.122;2023-04-16T04:22:23;9.00;90.70
1091;DHT22;534;48.704;9.122;2023-04-16T04:24:49;9.10;90.40
1091;DHT22;534;48.704;9.122;2023-04-16T04:27:16;9.10;90.30
1091;DHT22;534;48.704;9.122;2023-04-16T04:29:43;9.10;90.40
1091;DHT22;534;48.704;9.122;2023-04-16T04:32:09;9.10;90.10
1091;DHT22;534;48.704;9.122;2023-04-16T04:34:36;9.10;90.10
1091;DHT22;534;48.704;9.122;2023-04-16T04:37:04;9.10;90.20
1091;DHT22;534;48.704;9.122;2023-04-16T04:39:31;9.10;90.30
1091;DHT22;534;48.704;9.122;2023-04-16T04:41:57;9.10;90.00
1091;DHT22;534;48.704;9.122;2023-04-16T04:44:24;9.10;90.20
1091;DHT22;534;48.704;9.122;2023-04-16T04:46:50;9.10;90.00
1091;DHT22;534;48.704;9.122;2023-04-16T04:49:17;9.10;90.40
1091;DHT22;534;48.704;9.122;2023-04-16T04:51:44;9.20;90.40
1091;DHT22;534;48.704;9.122;2023-04-16T04:54:12;9.30;89.80
1091;DHT22;534;48.704;9.122;2023-04-16T04:56:38;9.30;89.80
1091;DHT22;534;48.704;9.122;2023-04-16T04:59:05;9.30;89.50
1091;DHT22;534;48.704;9.122;2023-04-16T05:01:32;9.20;89.70
1091;DHT22;534;48.704;9.122;2023-04-16T05:03:58;9.10;90.00
1091;DHT22;534;48.704;9.122;2023-04-16T05:06:25;9.10;90.40
1091;DHT22;534;48.704;9.122;2023-04-16T05:08:52;9.10;90.40
1091;DHT22;534;48.704;9.122;2023-04-16T05:11:20;9.10;90.40
1091;DHT22;534;48.704;9.122;2023-04-16T05:13:46;9.10;90.60
1091;DHT22;534;48.704;9.122;2023-04-16T05:16:13;9.10;90.60
1091;DHT22;534;48.704;9.122;2023-04-16T05:18:40;9.30;90.30
1091;DHT22;534;48.704;9.122;2023-04-16T05:21:07;9.20;89.80
1091;DHT22;534;48.704;9.122;2023-04-16T05:23:33;9.10;90.10
1091;DHT22;534;48.704;9.122;2023-04-16T05:26:00;9.20;90.40
1091;DHT22;534;48.704;9.122;2023-04-16T05:28:30;9.10;89.90
1091;DHT22;534;48.704;9.122;2023-04-16T05:30:56;8.90;90.60
1091;DHT22;534;48.704;9.122;2023-04-16T05:33:23;9.00;90.90
1091;DHT22;534;48.704;9.122;2023-04-16T05:35:50;9.00;90.60
1091;DHT22;534;48.704;9.122;2023-04-16T05:38:16;9.10;90.50
1091;DHT22;534;48.704;9.122;2023-04-16T05:40:43;9.20;90.20
1091;DHT22;534;48.704;9.122;2023-04-16T05:43:10;9.10;90.50
1091;DHT22;534;48.704;9.122;2023-04-16T05:45:38;9.10;90.60
1091;DHT22;534;48.704;9.122;2023-04-16T05:48:06;9.10;90.80
1091;DHT22;534;48.704;9.122;2023-04-16T05:50:33;9.10;90.80
1091;DHT22;534;48.704;9.122;2023-04-16T05:53:00;9.10;91.10
1091;DHT22;534;48.704;9.122;2023-04-16T05:55:27;9.10;91.10
1091;DHT22;534;48.704;9.122;2023-04-16T05:57:54;9.00;91.20
1091;DHT22;534;48.704;9.122;2023-04-16T06:00:21;9.10;91.20
1091;DHT22;534;48.704;9.122;2023-04-16T06:02:49;9.10;91.10
1091;DHT22;534;48.704;9.122;2023-04-16T06:05:16;9.10;91.00
1091;DHT22;534;48.704;9.122;2023-04-16T06:07:43;9.20;91.10
1091;DHT22;534;48.704;9.122;2023-04-16T06:10:10;9.20;91.00
1091;DHT22;534;48.704;9.122;2023-04-16T06:12:36;9.10;90.90
1091;DHT22;534;48.704;9.122;2023-04-16T06:15:04;9.10;91.50
1091;DHT22;534;48.704;9.122;2023-04-16T06:17:30;9.20;91.80
1091;DHT22;534;48.704;9.122;2023-04-16T06:19:58;9.30;92.10
1091;DHT22;534;48.704;9.122;2023-04-16T06:22:25;9.40;91.40
1091;DHT22;534;48.704;9.122;2023-04-16T06:24:52;9.50;91.00
1091;DHT22;534;48.704;9.122;2023-04-16T06:27:19;9.60;90.60
1091;DHT22;534;48.704;9.122;2023-04-16T06:29:45;9.70;90.30
1091;DHT22;534;48.704;9.122;2023-04-16T06:32:12;9.60;89.70
1091;DHT22;534;48.704;9.122;2023-04-16T06:34:39;9.70;89.40
1091;DHT22;534;48.704;9.122;2023-04-16T06:37:07;9.50;89.40
1091;DHT22;534;48.704;9.122;2023-04-16T06:39:33;9.50;89.70
1091;DHT22;534;48.704;9.122;2023-04-16T06:42:00;9.40;89.60
1091;DHT22;534;48.704;9.122;2023-04-16T06:44:27;9.40;90.00
1091;DHT22;534;48.704;9.122;2023-04-16T06:46:54;9.40;90.10
1091;DHT22;534;48.704;9.122;2023-04-16T06:49:20;9.50;90.10
1091;DHT22;534;48.704;9.122;2023-04-16T06:51:47;9.40;89.90
1091;DHT22;534;48.704;9.122;2023-04-16T06:54:15;9.40;90.00
1091;DHT22;534;48.704;9.122;2023-04-16T06:56:43;9.40;90.10
1091;DHT22;534;48.704;9.122;2023-04-16T06:59:10;9.40;90.10
1091;DHT22;534;48.704;9.122;2023-04-16T07:01:36;9.40;90.20
1091;DHT22;534;48.704;9.122;2023-04-16T07:04:03;9.50;90.00
1091;DHT22;534;48.704;9.122;2023-04-16T07:06:30;9.40;89.90
1091;DHT22;534;48.704;9.122;2023-04-16T07:08:57;9.40;89.90
1091;DHT22;534;48.704;9.122;2023-04-16T07:11:25;9.40;90.10
1091;DHT22;534;48.704;9.122;2023-04-16T07:13:52;9.40;90.10
1091;DHT22;534;48.704;9.122;2023-04-16T07:16:19;9.20;90.30
1091;DHT22;534;48.704;9.122;2023-04-16T07:18:45;9.30;90.70
1091;DHT22;534;48.704;9.122;2023-04-16T07:21:12;9.30;90.50
1091;DHT22;534;48.704;9.122;2023-04-16T07:23:38;9.40;90.30
1091;DHT22;534;48.704;9.122;2023-04-16T07:26:05;9.40;90.50
1091;DHT22;534;48.704;9.122;2023-04-16T07:28:33;9.40;90.10
1091;DHT22;534;48.704;9.122;2023-04-16T07:31:00;9.40;90.00
1091;DHT22;534;48.704;9.122;2023-04-16T07:33:26;9.40;90.00
1091;DHT22;534;48.704;9.122;2023-04-16T07:35:53;9.40;90.10
1091;DHT22;534;48.704;9.122;2023-04-16T07:38:20;9.30;90.00
1091;DHT22;534;48.704;9.122;2023-04-16T07:40:46;9.40;90.30
1091;DHT22;534;48.704;9.122;2023-04-16T07:43:13;9.40;90.00
1091;DHT22;534;48.704;9.122;2023-04-16T07:45:42;9.50;90.00
1091;DHT22;534;48.704;9.122;2023-04-16T07:48:08;9.40;89.90
1091;DHT22;534;48.704;9.122;2023-04-16T07:50:35;9.50;90.10
1091;DHT22;534;48.704;9.122;2023-04-16T07:53:02;9.50;90.00
1091;DHT22;534;48.704;9.122;2023-04-16T07:55:30;9.50;90.00
1091;DHT22;534;48.704;9.122;2023-04-16T07:57:56;9.50;90.20
1091;DHT22;534;48.704;9.122;2023-04-16T08:00:23;9.60;89.80
1091;DHT22;534;48.704;9.122;2023-04-16T08:02:52;9.60;89.60
1091;DHT22;534;48.704;9.122;2023-04-16T08:05:18;9.70;89.60
1091;DHT22;534;48.704;9.122;2023-04-16T08:07:45;9.60;88.90
1091;DHT22;534;48.704;9.122;2023-04-16T08:10:12;9.70;89.10
1091;DHT22;534;48.704;9.122;2023-04-16T08:12:39;9.70;88.60
1091;DHT22;534;48.704;9.122;2023-04-16T08:15:06;9.70;88.60
1091;DHT22;534;48.704;9.122;2023-04-16T08:17:33;9.60;88.80
1091;DHT22;534;48.704;9.122;2023-04-16T08:20:01;9.60;89.20
1091;DHT22;534;48.704;9.122;2023-04-16T08:22:28;9.60;89.00
1091;DHT22;534;48.704;9.122;2023-04-16T08:24:55;9.60;89.10
1091;DHT22;534;48.704;9.122;2023-04-16T08:27:21;9.70;89.00
1091;DHT22;534;48.704;9.122;2023-04-16T08:29:48;9.80;89.00
1091;DHT22;534;48.704;9.122;2023-04-16T08:32:15;9.80;88.80
1091;DHT22;534;48.704;9.122;2023-04-16T08:34:42;9.80;88.60
1091;DHT22;534;48.704;9.122;2023-04-16T08:37:10;9.80;88.50
1091;DHT22;534;48.704;9.122;2023-04-16T08:39:36;9.80;88.40
1091;DHT22;534;48.704;9.122;2023-04-16T08:42:04;9.70;88.40
1091;DHT22;534;48.704;9.122;2023-04-16T08:44:33;9.80;88.40
1091;DHT22;534;48.704;9.122;2023-04-16T08:47:02;9.80;88.30
1091;DHT22;534;48.704;9.122;2023-04-16T08:49:34;9.70;88.70
1091;DHT22;534;48.704;9.122;2023-04-16T08:52:04;9.60;88.70
1091;DHT22;534;48.704;9.122;2023-04-16T08:54:38;9.70;88.70
1091;DHT22;534;48.704;9.122;2023-04-16T08:57:09;9.70;88.30
1091;DHT22;534;48.704;9.122;2023-04-16T08:59:36;9.80;88.50
1091;DHT22;534;48.704;9.122;2023-04-16T09:02:04;9.80;88.00
1091;DHT22;534;48.704;9.122;2023-04-16T09:04:31;9.70;88.80
1091;DHT22;534;48.704;9.122;2023-04-16T09:06:58;9.70;89.10
1091;DHT22;534;48.704;9.122;2023-04-16T09:09:25;9.90;89.10
1091;DHT22;534;48.704;9.122;2023-04-16T09:11:54;10.10;88.50
1091;DHT22;534;48.704;9.122;2023-04-16T09:14:21;10.10;87.40
1091;DHT22;534;48.704;9.122;2023-04-16T09:16:48;10.00;87.60
1091;DHT22;534;48.704;9.122;2023-04-16T09:19:17;9.90;87.90
1091;DHT22;534;48.704;9.122;2023-04-16T09:21:46;9.90;88.40
1091;DHT22;534;48.704;9.122;2023-04-16T09:24:13;9.90;88.50
1091;DHT22;534;48.704;9.122;2023-04-16T09:26:40;10.00;88.50
1091;DHT22;534;48.704;9.122;2023-04-16T09:29:09;10.10;88.80
1091;DHT22;534;48.704;9.122;2023-04-16T09:31:35;10.10;88.30
1091;DHT22;534;48.704;9.122;2023-04-16T09:34:03;10.10;88.50
1091;DHT22;534;48.704;9.122;2023-04-16T09:36:31;10.30;88.20
1091;DHT22;534;48.704;9.122;2023-04-16T09:38:59;10.30;88.20
1091;DHT22;534;48.704;9.122;2023-04-16T09:41:27;10.40;88.00
1091;DHT22;534;48.704;9.122;2023-04-16T09:43:55;10.40;87.70
1091;DHT22;534;48.704;9.122;2023-04-16T09:46:24;10.50;87.40
1091;DHT22;534;48.704;9.122;2023-04-16T09:48:55;10.60;87.20
1091;DHT22;534;48.704;9.122;2023-04-16T09:51:21;10.60;86.80
1091;DHT22;534;48.704;9.122;2023-04-16T09:53:51;10.50;86.70
1091;DHT22;534;48.704;9.122;2023-04-16T09:56:22;10.60;87.10
1091;DHT22;534;48.704;9.122;2023-04-16T09:58:50;10.40;86.90
1091;DHT22;534;48.704;9.122;2023-04-16T10:01:21;10.40;87.50
1091;DHT22;534;48.704;9.122;2023-04-16T10:03:53;10.50;87.90
1091;DHT22;534;48.704;9.122;2023-04-16T10:06:22;10.40;87.30
1091;DHT22;534;48.704;9.122;2023-04-16T10:08:51;10.30;87.40
1091;DHT22;534;48.704;9.122;2023-04-16T10:11:19;10.30;87.70
1091;DHT22;534;48.704;9.122;2023-04-16T10:13:46;10.30;87.80
1091;DHT22;534;48.704;9.122;2023-04-16T10:16:13;10.40;87.50
1091;DHT22;534;48.704;9.122;2023-04-16T10:18:41;10.30;87.50
1091;DHT22;534;48.704;9.122;2023-04-16T10:21:10;10.30;87.30
1091;DHT22;534;48.704;9.122;2023-04-16T10:23:37;10.20;87.00
1091;DHT22;534;48.704;9.122;2023-04-16T10:26:05;10.20;87.80
1091;DHT22;534;48.704;9.122;2023-04-16T10:28:31;10.20;88.00
1091;DHT22;534;48.704;9.122;2023-04-16T10:31:01;10.10;87.80
1091;DHT22;534;48.704;9.122;2023-04-16T10:33:30;10.00;88.10
1091;DHT22;534;48.704;9.122;2023-04-16T10:36:08;10.00;88.50
1091;DHT22;534;48.704;9.122;2023-04-16T10:38:39;10.00;88.60
1091;DHT22;534;48.704;9.122;2023-04-16T10:41:07;10.00;88.40
1091;DHT22;534;48.704;9.122;2023-04-16T10:43:38;10.00;88.80
1091;DHT22;534;48.704;9.122;2023-04-16T10:46:22;10.10;89.00
1091;DHT22;534;48.704;9.122;2023-04-16T10:48:51;10.20;88.40
1091;DHT22;534;48.704;9.122;2023-04-16T10:51:26;10.20;88.40
1091;DHT22;534;48.704;9.122;2023-04-16T10:53:56;10.10;88.10
1091;DHT22;534;48.704;9.122;2023-04-16T10:56:24;10.20;88.50
1091;DHT22;534;48.704;9.122;2023-04-16T10:58:52;10.30;88.60
1091;DHT22;534;48.704;9.122;2023-04-16T11:01:29;10.30;88.40
1091;DHT22;534;48.704;9.122;2023-04-16T11:03:57;10.40;88.40
1091;DHT22;534;48.704;9.122;2023-04-16T11:06:26;10.40;88.00
1091;DHT22;534;48.704;9.122;2023-04-16T11:08:55;10.40;87.90
1091;DHT22;534;48.704;9.122;2023-04-16T11:11:22;10.40;87.60
1091;DHT22;534;48.704;9.122;2023-04-16T11:13:48;10.50;87.40
1091;DHT22;534;48.704;9.122;2023-04-16T11:16:20;10.60;87.40
1091;DHT22;534;48.704;9.122;2023-04-16T11:18:46;10.70;86.90
1091;DHT22;534;48.704;9.122;2023-04-16T11:21:13;10.70;86.90
1091;DHT22;534;48.704;9.122;2023-04-16T11:23:50;10.70;87.20
1091;DHT22;534;48.704;9.122;2023-04-16T11:26:23;10.80;87.10
1091;DHT22;534;48.704;9.122;2023-04-16T11:28:50;11.00;86.80
1091;DHT22;534;48.704;9.122;2023-04-16T11:31:17;10.90;86.10
1091;DHT22;534;48.704;9.122;2023-04-16T11:33:43;10.70;86.40
1091;DHT22;534;48.704;9.122;2023-04-16T11:36:10;10.70;86.90
1091;DHT22;534;48.704;9.122;2023-04-16T11:38:37;10.70;87.00
1091;DHT22;534;48.704;9.122;2023-04-16T11:41:06;10.70;87.10
1091;DHT22;534;48.704;9.122;2023-04-16T11:43:34;10.70;87.10
1091;DHT22;534;48.704;9.122;2023-04-16T11:46:01;10.70;86.90
1091;DHT22;534;48.704;9.122;2023-04-16T11:48:46;10.90;86.50
1091;DHT22;534;48.704;9.122;2023-04-16T11:51:13;10.90;86.30
1091;DHT22;534;48.704;9.122;2023-04-16T11:53:50;11.00;86.70
1091;DHT22;534;48.704;9.122;2023-04-16T11:56:25;11.00;86.20
1091;DHT22;534;48.704;9.122;2023-04-16T11:59:07;11.10;86.10
1091;DHT22;534;48.704;9.122;2023-04-16T12:01:35;11.20;85.90
1091;DHT22;534;48.704;9.122;2023-04-16T12:04:02;11.10;86.20
1091;DHT22;534;48.704;9.122;2023-04-16T12:06:29;11.00;86.00
1091;DHT22;534;48.704;9.122;2023-04-16T12:08:57;11.00;86.60
1091;DHT22;534;48.704;9.122;2023-04-16T12:11:37;11.10;86.40
1091;DHT22;534;48.704;9.122;2023-04-16T12:14:08;11.00;86.80
1091;DHT22;534;48.704;9.122;2023-04-16T12:16:35;11.00;86.80
1091;DHT22;534;48.704;9.122;2023-04-16T12:19:02;11.00;86.70
1091;DHT22;534;48.704;9.122;2023-04-16T12:21:36;11.00;86.90
1091;DHT22;534;48.704;9.122;2023-04-16T12:24:04;11.00;86.80
1091;DHT22;534;48.704;9.122;2023-04-16T12:26:39;10.90;87.20
1091;DHT22;534;48.704;9.122;2023-04-16T12:29:19;10.80;87.10
1091;DHT22;534;48.704;9.122;2023-04-16T12:31:46;10.90;87.60
1091;DHT22;534;48.704;9.122;2023-04-16T12:34:13;11.00;87.30
1091;DHT22;534;48.704;9.122;2023-04-16T12:36:41;11.00;86.70
1091;DHT22;534;48.704;9.122;2023-04-16T12:39:07;11.00;86.90
1091;DHT22;534;48.704;9.122;2023-04-16T12:41:36;11.00;86.70
1091;DHT22;534;48.704;9.122;2023-04-16T12:44:05;11.10;86.80
1091;DHT22;534;48.704;9.122;2023-04-16T12:46:34;11.10;86.50
1091;DHT22;534;48.704;9.122;2023-04-16T12:49:02;10.90;87.10
1091;DHT22;534;48.704;9.122;2023-04-16T12:51:28;10.90;86.80
1091;DHT22;534;48.704;9.122;2023-04-16T12:53:55;11.00;86.80
1091;DHT22;534;48.704;9.122;2023-04-16T12:56:22;10.90;86.30
1091;DHT22;534;48.704;9.122;2023-04-16T12:58:49;10.90;87.00
1091;DHT22;534;48.704;9.122;2023-04-16T13:01:16;11.00;87.00
1091;DHT22;534;48.704;9.122;2023-04-16T13:03:45;11.00;86.70
1091;DHT22;534;48.704;9.122;2023-04-16T13:06:12;11.00;86.80
1091;DHT22;534;48.704;9.122;2023-04-16T13:08:39;11.00;86.80
1091;DHT22;534;48.704;9.122;2023-04-16T13:11:06;11.10;87.00
1091;DHT22;534;48.704;9.122;2023-04-16T13:13:33;11.10;86.50
1091;DHT22;534;48.704;9.122;2023-04-16T13:16:00;11.10;86.70
1091;DHT22;534;48.704;9.122;2023-04-16T13:18:28;11.10;86.50
1091;DHT22;534;48.704;9.122;2023-04-16T13:20:57;11.10;86.40
1091;DHT22;534;48.704;9.122;2023-04-16T13:23:24;11.10;86.70
1091;DHT22;534;48.704;9.122;2023-04-16T13:25:51;11.00;86.80
1091;DHT22;534;48.704;9.122;2023-04-16T13:28:18;11.10;87.00
1091;DHT22;534;48.704;9.122;2023-04-16T13:30:45;11.20;86.70
1091;DHT22;534;48.704;9.122;2023-04-16T13:33:12;11.10;86.40
1091;DHT22;534;48.704;9.122;2023-04-16T13:35:39;11.00;86.60
1091;DHT22;534;48.704;9.122;2023-04-16T13:38:07;11.10;86.90
1091;DHT22;534;48.704;9.122;2023-04-16T13:40:34;11.20;86.90
1091;DHT22;534;48.704;9.122;2023-04-16T13:43:01;11.20;87.20
1091;DHT22;534;48.704;9.122;2023-04-16T13:45:27;11.30;86.70
1091;DHT22;534;48.704;9.122;2023-04-16T13:47:54;11.30;86.30
1091;DHT22;534;48.704;9.122;2023-04-16T13:50:21;11.40;86.20
1091;DHT22;534;48.704;9.122;2023-04-16T13:52:48;11.30;86.10
1091;DHT22;534;48.704;9.122;2023-04-16T13:55:16;11.10;86.30
1091;DHT22;534;48.704;9.122;2023-04-16T13:57:43;10.90;86.60
1091;DHT22;534;48.704;9.122;2023-04-16T14:00:11;10.90;87.30
1091;DHT22;534;48.704;9.122;2023-04-16T14:02:38;10.80;87.50
1091;DHT22;534;48.704;9.122;2023-04-16T14:05:05;10.70;87.60
1091;DHT22;534;48.704;9.122;2023-04-16T14:07:32;10.70;87.90
1091;DHT22;534;48.704;9.122;2023-04-16T14:09:59;10.70;88.30
1091;DHT22;534;48.704;9.122;2023-04-16T14:12:27;10.80;88.60
1091;DHT22;534;48.704;9.122;2023-04-16T14:14:54;10.90;88.10
1091;DHT22;534;48.704;9.122;2023-04-16T14:17:20;11.00;87.70
1091;DHT22;534;48.704;9.122;2023-04-16T14:19:47;10.90;87.50
1091;DHT22;534;48.704;9.122;2023-04-16T14:22:14;10.80;87.60
1091;DHT22;534;48.704;9.122;2023-04-16T14:24:42;10.90;88.20
1091;DHT22;534;48.704;9.122;2023-04-16T14:27:09;11.00;87.90
1091;DHT22;534;48.704;9.122;2023-04-16T14:29:38;10.90;87.50
1091;DHT22;534;48.704;9.122;2023-04-16T14:32:05;10.90;87.70
1091;DHT22;534;48.704;9.122;2023-04-16T14:34:32;10.90;87.70
1091;DHT22;534;48.704;9.122;2023-04-16T14:36:59;10.80;88.00
1091;DHT22;534;48.704;9.122;2023-04-16T14:39:25;10.90;88.00
1091;DHT22;534;48.704;9.122;2023-04-16T14:41:52;10.90;88.10
1091;DHT22;534;48.704;9.122;2023-04-16T14:44:19;11.00;87.90
1091;DHT22;534;48.704;9.122;2023-04-16T14:46:47;10.90;87.90
1091;DHT22;534;48.704;9.122;2023-04-16T14:49:14;10.90;87.90
1091;DHT22;534;48.704;9.122;2023-04-16T14:51:41;10.90;87.90
1091;DHT22;534;48.704;9.122;2023-04-16T14:54:08;10.90;88.00
1091;DHT22;534;48.704;9.122;2023-04-16T14:56:34;10.90;87.90
1091;DHT22;534;48.704;9.122;2023-04-16T14:59:01;11.00;88.10
1091;DHT22;534;48.704;9.122;2023-04-16T15:01:28;11.00;88.10
1091;DHT22;534;48.704;9.122;2023-04-16T15:03:56;11.10;87.50
1091;DHT22;534;48.704;9.122;2023-04-16T15:06:23;11.10;87.90
1091;DHT22;534;48.704;9.122;2023-04-16T15:08:50;11.00;87.60
1091;DHT22;534;48.704;9.122;2023-04-16T15:11:17;11.00;87.80
1091;DHT22;534;48.704;9.122;2023-04-16T15:13:44;10.90;87.90
1091;DHT22;534;48.704;9.122;2023-04-16T15:16:10;10.90;87.90
1091;DHT22;534;48.704;9.122;2023-04-16T15:18:37;10.90;88.10
1091;DHT22;534;48.704;9.122;2023-04-16T15:21:05;10.80;88.10
1091;DHT22;534;48.704;9.122;2023-04-16T15:23:32;10.80;88.50
1091;DHT22;534;48.704;9.122;2023-04-16T15:25:58;10.70;88.90
1091;DHT22;534;48.704;9.122;2023-04-16T15:28:25;10.70;89.50
1091;DHT22;534;48.704;9.122;2023-04-16T15:30:52;10.90;89.10
1091;DHT22;534;48.704;9.122;2023-04-16T15:33:19;10.90;88.70
1091;DHT22;534;48.704;9.122;2023-04-16T15:35:46;10.90;88.80
1091;DHT22;534;48.704;9.122;2023-04-16T15:38:14;11.00;88.70
1091;DHT22;534;48.704;9.122;2023-04-16T15:40:40;10.80;88.70
1091;DHT22;534;48.704;9.122;2023-04-16T15:43:07;10.70;89.10
1091;DHT22;534;48.704;9.122;2023-04-16T15:45:34;10.70;89.40
1091;DHT22;534;48.704;9.122;2023-04-16T15:48:00;10.80;89.00
1091;DHT22;534;48.704;9.122;2023-04-16T15:50:30;10.90;89.10
1091;DHT22;534;48.704;9.122;2023-04-16T15:52:57;10.90;88.70
1091;DHT22;534;48.704;9.122;2023-04-16T15:55:25;11.00;88.40
1091;DHT22;534;48.704;9.122;2023-04-16T15:57:51;10.90;88.70
1091;DHT22;534;48.704;9.122;2023-04-16T16:00:19;11.00;88.70
1091;DHT22;534;48.704;9.122;2023-04-16T16:02:46;11.00;88.40
1091;DHT22;534;48.704;9.122;2023-04-16T16:05:13;11.10;88.40
1091;DHT22;534;48.704;9.122;2023-04-16T16:07:40;11.10;88.50
1091;DHT22;534;48.704;9.122;2023-04-16T16:10:09;11.20;88.40
1091;DHT22;534;48.704;9.122;2023-04-16T16:12:38;11.20;88.20
1091;DHT22;534;48.704;9.122;2023-04-16T16:15:06;11.30;88.10
1091;DHT22;534;48.704;9.122;2023-04-16T16:17:35;11.30;88.00
1091;DHT22;534;48.704;9.122;2023-04-16T16:20:02;11.20;87.80
1091;DHT22;534;48.704;9.122;2023-04-16T16:22:31;11.10;88.20
1091;DHT22;534;48.704;9.122;2023-04-16T16:24:57;11.20;88.00
1091;DHT22;534;48.704;9.122;2023-04-16T16:27:24;11.20;88.10
1091;DHT22;534;48.704;9.122;2023-04-16T16:29:52;11.00;88.40
1091;DHT22;534;48.704;9.122;2023-04-16T16:32:19;11.00;88.50
1091;DHT22;534;48.704;9.122;2023-04-16T16:34:46;11.00;89.20
1091;DHT22;534;48.704;9.122;2023-04-16T16:37:13;11.00;88.60
1091;DHT22;534;48.704;9.122;2023-04-16T16:39:39;11.00;88.90
1091;DHT22;534;48.704;9.122;2023-04-16T16:42:06;11.00;88.40
1091;DHT22;534;48.704;9.122;2023-04-16T16:44:34;10.90;88.90
1091;DHT22;534;48.704;9.122;2023-04-16T16:47:02;10.90;89.20
1091;DHT22;534;48.704;9.122;2023-04-16T16:49:28;10.90;89.40
1091;DHT22;534;48.704;9.122;2023-04-16T16:51:55;10.90;89.00
1091;DHT22;534;48.704;9.122;2023-04-16T16:54:21;10.80;89.20
1091;DHT22;534;48.704;9.122;2023-04-16T16:56:48;10.70;89.80
1091;DHT22;534;48.704;9.122;2023-04-16T16:59:15;10.70;90.00
1091;DHT22;534;48.704;9.122;2023-04-16T17:01:41;10.80;90.00
1091;DHT22;534;48.704;9.122;2023-04-16T17:04:09;10.70;89.70
1091;DHT22;534;48.704;9.122;2023-04-16T17:06:36;10.80;89.70
1091;DHT22;534;48.704;9.122;2023-04-16T17:09:03;10.80;89.80
1091;DHT22;534;48.704;9.122;2023-04-16T17:11:31;10.80;89.40
1091;DHT22;534;48.704;9.122;2023-04-16T17:13:58;10.80;89.80
1091;DHT22;534;48.704;9.122;2023-04-16T17:16:24;10.80;89.90
1091;DHT22;534;48.704;9.122;2023-04-16T17:18:51;10.80;90.00
1091;DHT22;534;48.704;9.122;2023-04-16T17:21:19;10.80;89.90
1091;DHT22;534;48.704;9.122;2023-04-16T17:23:46;10.80;89.90
1091;DHT22;534;48.704;9.122;2023-04-16T17:26:12;10.80;90.00
1091;DHT22;534;48.704;9.122;2023-04-16T17:28:39;10.90;89.80
1091;DHT22;534;48.704;9.122;2023-04-16T17:31:06;10.90;89.80
1091;DHT22;534;48.704;9.122;2023-04-16T17:33:35;11.00;89.50
1091;DHT22;534;48.704;9.122;2023-04-16T17:36:02;10.90;89.60
1091;DHT22;534;48.704;9.122;2023-04-16T17:38:30;11.00;89.40
1091;DHT22;534;48.704;9.122;2023-04-16T17:40:58;10.90;89.10
1091;DHT22;534;48.704;9.122;2023-04-16T17:43:24;10.60;89.90
1091;DHT22;534;48.704;9.122;2023-04-16T17:45:52;10.70;90.30
1091;DHT22;534;48.704;9.122;2023-04-16T17:48:19;10.80;90.00
1091;DHT22;534;48.704;9.122;2023-04-16T17:50:45;10.90;89.60
1091;DHT22;534;48.704;9.122;2023-04-16T17:53:13;10.90;89.20
1091;DHT22;534;48.704;9.122;2023-04-16T17:55:48;10.90;89.70
1091;DHT22;534;48.704;9.122;2023-04-16T17:58:15;10.80;89.30
1091;DHT22;534;48.704;9.122;2023-04-16T18:00:42;10.70;90.30
1091;DHT22;534;48.704;9.122;2023-04-16T18:03:10;10.70;90.10
1091;DHT22;534;48.704;9.122;2023-04-16T18:05:38;10.70;90.40
1091;DHT22;534;48.704;9.122;2023-04-16T18:08:05;10.80;90.00
1091;DHT22;534;48.704;9.122;2023-04-16T18:10:31;10.80;89.90
1091;DHT22;534;48.704;9.122;2023-04-16T18:13:00;10.80;89.90
1091;DHT22;534;48.704;9.122;2023-04-16T18:15:26;10.80;90.40
1091;DHT22;534;48.704;9.122;2023-04-16T18:17:53;10.90;89.70
1091;DHT22;534;48.704;9.122;2023-04-16T18:20:20;10.80;89.80
1091;DHT22;534;48.704;9.122;2023-04-16T18:22:47;10.90;90.00
1091;DHT22;534;48.704;9.122;2023-04-16T18:25:13;10.90;89.80
1091;DHT22;534;48.704;9.122;2023-04-16T18:27:40;10.90;89.50
1091;DHT22;534;48.704;9.122;2023-04-16T18:30:09;10.90;89.50
1091;DHT22;534;48.704;9.122;2023-04-16T18:32:36;10.90;89.30
1091;DHT22;534;48.704;9.122;2023-04-16T18:35:03;11.00;89.60
1091;DHT22;534;48.704;9.122;2023-04-16T18:37:30;10.90;89.30
1091;DHT22;534;48.704;9.122;2023-04-16T18:39:57;10.90;89.70
1091;DHT22;534;48.704;9.122;2023-04-16T18:42:24;10.90;89.60
1091;DHT22;534;48.704;9.122;2023-04-16T18:44:52;10.80;89.60
1091;DHT22;534;48.704;9.122;2023-04-16T18:47:20;10.70;89.90
1091;DHT22;534;48.704;9.122;2023-04-16T18:49:47;10.80;90.30
1091;DHT22;534;48.704;9.122;2023-04-16T18:52:14;10.70;89.90
1091;DHT22;534;48.704;9.122;2023-04-16T18:54:40;10.70;90.10
1091;DHT22;534;48.704;9.122;2023-04-16T18:57:07;10.60;90.40
1091;DHT22;534;48.704;9.122;2023-04-16T18:59:34;10.70;90.40
1091;DHT22;534;48.704;9.122;2023-04-16T19:02:01;10.60;90.50
1091;DHT22;534;48.704;9.122;2023-04-16T19:04:29;10.70;90.60
1091;DHT22;534;48.704;9.122;2023-04-16T19:06:56;10.70;90.30
1091;DHT22;534;48.704;9.122;2023-04-16T19:09:24;10.70;90.30
1091;DHT22;534;48.704;9.122;2023-04-16T19:11:51;10.70;90.10
1091;DHT22;534;48.704;9.122;2023-04-16T19:14:18;10.70;90.10
1091;DHT22;534;48.704;9.122;2023-04-16T19:16:45;10.70;90.30
1091;DHT22;534;48.704;9.122;2023-04-16T19:19:12;10.70;89.90
1091;DHT22;534;48.704;9.122;2023-04-16T19:21:40;10.70;89.70
1091;DHT22;534;48.704;9.122;2023-04-16T19:24:07;10.60;89.90
1091;DHT22;534;48.704;9.122;2023-04-16T19:26:34;10.70;90.10
1091;DHT22;534;48.704;9.122;2023-04-16T19:29:00;10.80;89.70
1091;DHT22;534;48.704;9.122;2023-04-16T19:31:27;10.70;89.80
1091;DHT22;534;48.704;9.122;2023-04-16T19:33:54;10.80;89.60
1091;DHT22;534;48.704;9.122;2023-04-16T19:36:20;10.80;89.40
1091;DHT22;534;48.704;9.122;2023-04-16T19:38:48;10.80;89.50
1091;DHT22;534;48.704;9.122;2023-04-16T19:41:15;10.90;89.30
1091;DHT22;534;48.704;9.122;2023-04-16T19:43:42;10.90;89.10
1091;DHT22;534;48.704;9.122;2023-04-16T19:46:08;11.00;89.00
1091;DHT22;534;48.704;9.122;2023-04-16T19:48:35;11.00;88.80
1091;DHT22;534;48.704;9.122;2023-04-16T19:51:02;11.00;88.80
1091;DHT22;534;48.704;9.122;2023-04-16T19:53:30;11.00;88.60
1091;DHT22;534;48.704;9.122;2023-04-16T19:55:58;10.90;88.70
1091;DHT22;534;48.704;9.122;2023-04-16T19:58:24;10.80;88.90
1091;DHT22;534;48.704;9.122;2023-04-16T20:00:51;10.80;89.00
1091;DHT22;534;48.704;9.122;2023-04-16T20:03:18;10.80;89.00
1091;DHT22;534;48.704;9.122;2023-04-16T20:05:47;10.80;89.00
1091;DHT22;534;48.704;9.122;2023-04-16T20:08:14;10.80;89.30
1091;DHT22;534;48.704;9.122;2023-04-16T20:10:40;10.80;89.10
1091;DHT22;534;48.704;9.122;2023-04-16T20:13:08;10.80;89.00
1091;DHT22;534;48.704;9.122;2023-04-16T20:15:38;10.80;89.00
1091;DHT22;534;48.704;9.122;2023-04-16T20:18:05;10.80;89.10
1091;DHT22;534;48.704;9.122;2023-04-16T20:20:33;10.90;89.20
1091;DHT22;534;48.704;9.122;2023-04-16T20:23:00;10.90;89.10
1091;DHT22;534;48.704;9.122;2023-04-16T20:25:27;10.90;88.70